sensor_id;sensor_type;location;lat;lon;timestamp;P1;durP1;ratioP1;P2;durP2;ratioP2
23988;SDS011;12202;52.136;5.592;2023-04-24T00:01:22;4.55;;;2.25;;
23988;SDS011;12202;52.136;5.592;2023-04-24T00:03:48;6.32;;;2.55;;
23988;SDS011;12202;52.136;5.592;2023-04-24T00:06:15;4.55;;;2.85;;
23988;SDS011;12202;52.136;5.592;2023-04-24T00:08:41;6.72;;;3.58;;
23988;SDS011;12202;52.136;5.592;2023-04-24T00:11:08;6.32;;;4.82;;
23988;SDS011;12202;52.136;5.592;2023-04-24T00:13:34;6.78;;;5.20;;
23988;SDS011;12202;52.136;5.592;2023-04-24T00:16:00;7.65;;;5.97;;
23988;SDS011;12202;52.136;5.592;2023-04-24T00:18:26;10.77;;;7.63;;
23988;SDS011;12202;52.136;5.592;2023-04-24T00:20:52;12.57;;;8.45;;
23988;SDS011;12202;52.136;5.592;2023-04-24T00:23:18;13.95;;;8.57;;
23988;SDS011;12202;52.136;5.592;2023-04-24T00:25:44;11.88;;;8.02;;
23988;SDS011;12202;52.136;5.592;2023-04-24T00:28:10;12.68;;;9.80;;
23988;SDS011;12202;52.136;5.592;2023-04-24T00:30:36;13.32;;;9.57;;
23988;SDS011;12202;52.136;5.592;2023-04-24T00:33:02;16.50;;;11.70;;
23988;SDS011;12202;52.136;5.592;2023-04-24T00:35:28;14.35;;;10.70;;
23988;SDS011;12202;52.136;5.592;2023-04-24T00:37:54;13.55;;;9.95;;
23988;SDS011;12202;52.136;5.592;2023-04-24T00:40:20;14.68;;;10.10;;
23988;SDS011;12202;52.136;5.592;2023-04-24T00:42:46;14.88;;;10.43;;
23988;SDS011;12202;52.136;5.592;2023-04-24T00:45:12;16.48;;;9.98;;
23988;SDS011;12202;52.136;5.592;2023-04-24T00:47:38;12.80;;;9.05;;
23988;SDS011;12202;52.136;5.592;2023-04-24T00:50:05;14.27;;;9.88;;
23988;SDS011;12202;52.136;5.592;2023-04-24T00:52:31;11.95;;;8.95;;
23988;SDS011;12202;52.136;5.592;2023-04-24T00:54:58;12.38;;;9.07;;
23988;SDS011;12202;52.136;5.592;2023-04-24T00:57:24;13.88;;;9.70;;
23988;SDS011;12202;52.136;5.592;2023-04-24T00:59:50;16.45;;;9.43;;
23988;SDS011;12202;52.136;5.592;2023-04-24T01:02:17;11.82;;;8.82;;
23988;SDS011;12202;52.136;5.592;2023-04-24T01:04:43;11.55;;;8.13;;
23988;SDS011;12202;52.136;5.592;2023-04-24T01:07:09;13.77;;;9.27;;
23988;SDS011;12202;52.136;5.592;2023-04-24T01:09:39;12.15;;;9.18;;
23988;SDS011;12202;52.136;5.592;2023-04-24T01:12:09;16.95;;;10.02;;
23988;SDS011;12202;52.136;5.592;2023-04-24T01:14:36;16.15;;;10.80;;
23988;SDS011;12202;52.136;5.592;2023-04-24T01:17:02;15.00;;;10.10;;
23988;SDS011;12202;52.136;5.592;2023-04-24T01:19:29;17.38;;;11.48;;
23988;SDS011;12202;52.136;5.592;2023-04-24T01:21:56;19.48;;;12.20;;
23988;SDS011;12202;52.136;5.592;2023-04-24T01:24:24;16.77;;;11.10;;
23988;SDS011;12202;52.136;5.592;2023-04-24T01:26:51;17.40;;;10.57;;
23988;SDS011;12202;52.136;5.592;2023-04-24T01:29:17;15.98;;;11.23;;
23988;SDS011;12202;52.136;5.592;2023-04-24T01:31:44;19.13;;;11.13;;
23988;SDS011;12202;52.136;5.592;2023-04-24T01:34:10;19.30;;;11.75;;
23988;SDS011;12202;52.136;5.592;2023-04-24T01:36:36;19.33;;;12.68;;
23988;SDS011;12202;52.136;5.592;2023-04-24T01:39:03;15.70;;;11.75;;
23988;SDS011;12202;52.136;5.592;2023-04-24T01:41:29;21.73;;;13.75;;
23988;SDS011;12202;52.136;5.592;2023-04-24T01:43:56;18.60;;;13.23;;
23988;SDS011;12202;52.136;5.592;2023-04-24T01:46:23;21.92;;;13.50;;
23988;SDS011;12202;52.136;5.592;2023-04-24T01:48:49;20.00;;;13.32;;
23988;SDS011;12202;52.136;5.592;2023-04-24T01:51:16;20.52;;;13.55;;
23988;SDS011;12202;52.136;5.592;2023-04-24T01:53:42;19.95;;;14.15;;
23988;SDS011;12202;52.136;5.592;2023-04-24T01:56:09;21.00;;;13.88;;
23988;SDS011;12202;52.136;5.592;2023-04-24T01:58:35;23.38;;;14.88;;
23988;SDS011;12202;52.136;5.592;2023-04-24T02:01:01;28.88;;;14.23;;
23988;SDS011;12202;52.136;5.592;2023-04-24T02:03:27;22.38;;;13.90;;
23988;SDS011;12202;52.136;5.592;2023-04-24T02:05:54;29.63;;;15.25;;
23988;SDS011;12202;52.136;5.592;2023-04-24T02:08:20;23.85;;;14.20;;
23988;SDS011;12202;52.136;5.592;2023-04-24T02:10:46;24.00;;;14.40;;
23988;SDS011;12202;52.136;5.592;2023-04-24T02:13:12;23.48;;;13.27;;
23988;SDS011;12202;52.136;5.592;2023-04-24T02:15:38;19.13;;;12.18;;
23988;SDS011;12202;52.136;5.592;2023-04-24T02:18:04;16.38;;;10.50;;
23988;SDS011;12202;52.136;5.592;2023-04-24T02:20:31;18.60;;;10.02;;
23988;SDS011;12202;52.136;5.592;2023-04-24T02:22:59;11.38;;;7.90;;
23988;SDS011;12202;52.136;5.592;2023-04-24T02:25:25;8.93;;;6.35;;
23988;SDS011;12202;52.136;5.592;2023-04-24T02:27:51;10.50;;;6.13;;
23988;SDS011;12202;52.136;5.592;2023-04-24T02:30:16;10.27;;;7.43;;
23988;SDS011;12202;52.136;5.592;2023-04-24T02:32:43;12.27;;;8.25;;
23988;SDS011;12202;52.136;5.592;2023-04-24T02:35:09;14.32;;;9.50;;
23988;SDS011;12202;52.136;5.592;2023-04-24T02:37:35;16.75;;;11.13;;
23988;SDS011;12202;52.136;5.592;2023-04-24T02:40:01;18.27;;;12.02;;
23988;SDS011;12202;52.136;5.592;2023-04-24T02:42:27;19.40;;;10.77;;
23988;SDS011;12202;52.136;5.592;2023-04-24T02:44:53;17.33;;;11.07;;
23988;SDS011;12202;52.136;5.592;2023-04-24T02:47:19;15.70;;;10.57;;
23988;SDS011;12202;52.136;5.592;2023-04-24T02:49:45;16.83;;;10.63;;
23988;SDS011;12202;52.136;5.592;2023-04-24T02:52:11;19.70;;;10.45;;
23988;SDS011;12202;52.136;5.592;2023-04-24T02:54:38;18.50;;;10.25;;
23988;SDS011;12202;52.136;5.592;2023-04-24T02:57:04;20.48;;;11.18;;
23988;SDS011;12202;52.136;5.592;2023-04-24T02:59:31;21.55;;;11.23;;
23988;SDS011;12202;52.136;5.592;2023-04-24T03:01:57;19.83;;;10.93;;
23988;SDS011;12202;52.136;5.592;2023-04-24T03:04:23;19.33;;;12.25;;
23988;SDS011;12202;52.136;5.592;2023-04-24T03:06:49;21.20;;;11.25;;
23988;SDS011;12202;52.136;5.592;2023-04-24T03:09:17;17.98;;;11.38;;
23988;SDS011;12202;52.136;5.592;2023-04-24T03:11:43;17.58;;;11.80;;
23988;SDS011;12202;52.136;5.592;2023-04-24T03:14:09;17.15;;;10.85;;
23988;SDS011;12202;52.136;5.592;2023-04-24T03:16:35;17.92;;;11.15;;
23988;SDS011;12202;52.136;5.592;2023-04-24T03:19:02;17.90;;;9.85;;
23988;SDS011;12202;52.136;5.592;2023-04-24T03:21:28;16.25;;;8.38;;
23988;SDS011;12202;52.136;5.592;2023-04-24T03:23:55;20.20;;;9.65;;
23988;SDS011;12202;52.136;5.592;2023-04-24T03:26:21;15.88;;;9.25;;
23988;SDS011;12202;52.136;5.592;2023-04-24T03:28:47;14.98;;;8.98;;
23988;SDS011;12202;52.136;5.592;2023-04-24T03:31:13;14.73;;;9.13;;
23988;SDS011;12202;52.136;5.592;2023-04-24T03:33:40;14.77;;;8.63;;
23988;SDS011;12202;52.136;5.592;2023-04-24T03:36:06;17.15;;;9.27;;
23988;SDS011;12202;52.136;5.592;2023-04-24T03:38:32;15.07;;;8.82;;
23988;SDS011;12202;52.136;5.592;2023-04-24T03:40:58;14.85;;;9.27;;
23988;SDS011;12202;52.136;5.592;2023-04-24T03:43:24;17.85;;;10.57;;
23988;SDS011;12202;52.136;5.592;2023-04-24T03:45:52;21.15;;;11.80;;
23988;SDS011;12202;52.136;5.592;2023-04-24T03:48:18;21.77;;;12.68;;
23988;SDS011;12202;52.136;5.592;2023-04-24T03:50:44;21.77;;;11.90;;
23988;SDS011;12202;52.136;5.592;2023-04-24T03:53:10;19.25;;;11.90;;
23988;SDS011;12202;52.136;5.592;2023-04-24T03:55:36;18.77;;;11.43;;
23988;SDS011;12202;52.136;5.592;2023-04-24T03:58:02;16.95;;;11.13;;
23988;SDS011;12202;52.136;5.592;2023-04-24T04:00:28;21.35;;;11.50;;
23988;SDS011;12202;52.136;5.592;2023-04-24T04:02:56;16.88;;;10.75;;
23988;SDS011;12202;52.136;5.592;2023-04-24T04:05:22;18.15;;;11.50;;
23988;SDS011;12202;52.136;5.592;2023-04-24T04:07:48;15.38;;;10.07;;
23988;SDS011;12202;52.136;5.592;2023-04-24T04:10:14;17.88;;;10.38;;
23988;SDS011;12202;52.136;5.592;2023-04-24T04:12:42;16.42;;;9.35;;
23988;SDS011;12202;52.136;5.592;2023-04-24T04:15:08;11.75;;;7.75;;
23988;SDS011;12202;52.136;5.592;2023-04-24T04:17:34;15.02;;;8.38;;
23988;SDS011;12202;52.136;5.592;2023-04-24T04:20:00;11.80;;;7.40;;
23988;SDS011;12202;52.136;5.592;2023-04-24T04:22:26;10.20;;;6.70;;
23988;SDS011;12202;52.136;5.592;2023-04-24T04:24:52;9.02;;;6.32;;
23988;SDS011;12202;52.136;5.592;2023-04-24T04:27:18;8.63;;;5.93;;
23988;SDS011;12202;52.136;5.592;2023-04-24T04:29:46;10.35;;;5.35;;
23988;SDS011;12202;52.136;5.592;2023-04-24T04:32:12;8.65;;;5.38;;
23988;SDS011;12202;52.136;5.592;2023-04-24T04:34:38;11.18;;;5.78;;
23988;SDS011;12202;52.136;5.592;2023-04-24T04:37:04;9.98;;;6.65;;
23988;SDS011;12202;52.136;5.592;2023-04-24T04:39:30;12.20;;;6.28;;
23988;SDS011;12202;52.136;5.592;2023-04-24T04:41:59;10.50;;;6.45;;
23988;SDS011;12202;52.136;5.592;2023-04-24T04:44:25;9.75;;;6.47;;
23988;SDS011;12202;52.136;5.592;2023-04-24T04:46:52;13.43;;;7.50;;
23988;SDS011;12202;52.136;5.592;2023-04-24T04:49:21;18.15;;;11.00;;
23988;SDS011;12202;52.136;5.592;2023-04-24T04:51:48;16.95;;;9.90;;
23988;SDS011;12202;52.136;5.592;2023-04-24T04:54:15;12.73;;;7.60;;
23988;SDS011;12202;52.136;5.592;2023-04-24T04:56:41;12.50;;;7.00;;
23988;SDS011;12202;52.136;5.592;2023-04-24T04:59:07;9.23;;;6.07;;
23988;SDS011;12202;52.136;5.592;2023-04-24T05:01:34;9.20;;;5.80;;
23988;SDS011;12202;52.136;5.592;2023-04-24T05:04:00;8.15;;;4.88;;
23988;SDS011;12202;52.136;5.592;2023-04-24T05:06:26;8.30;;;5.32;;
23988;SDS011;12202;52.136;5.592;2023-04-24T05:08:52;9.05;;;5.05;;
23988;SDS011;12202;52.136;5.592;2023-04-24T05:11:22;7.82;;;5.15;;
23988;SDS011;12202;52.136;5.592;2023-04-24T05:13:48;6.38;;;4.72;;
23988;SDS011;12202;52.136;5.592;2023-04-24T05:16:14;9.50;;;4.70;;
23988;SDS011;12202;52.136;5.592;2023-04-24T05:18:40;5.90;;;4.03;;
23988;SDS011;12202;52.136;5.592;2023-04-24T05:21:07;9.00;;;5.03;;
23988;SDS011;12202;52.136;5.592;2023-04-24T05:23:32;20.67;;;5.70;;
23988;SDS011;12202;52.136;5.592;2023-04-24T05:25:59;11.68;;;5.47;;
23988;SDS011;12202;52.136;5.592;2023-04-24T05:28:25;8.88;;;5.10;;
23988;SDS011;12202;52.136;5.592;2023-04-24T05:30:53;9.63;;;5.47;;
23988;SDS011;12202;52.136;5.592;2023-04-24T05:33:20;9.38;;;5.63;;
23988;SDS011;12202;52.136;5.592;2023-04-24T05:35:47;10.80;;;6.50;;
23988;SDS011;12202;52.136;5.592;2023-04-24T05:38:13;15.43;;;7.43;;
23988;SDS011;12202;52.136;5.592;2023-04-24T05:40:42;11.20;;;7.45;;
23988;SDS011;12202;52.136;5.592;2023-04-24T05:43:08;15.93;;;8.35;;
23988;SDS011;12202;52.136;5.592;2023-04-24T05:45:37;14.82;;;8.25;;
23988;SDS011;12202;52.136;5.592;2023-04-24T05:48:03;14.80;;;7.65;;
23988;SDS011;12202;52.136;5.592;2023-04-24T05:50:34;13.48;;;8.00;;
23988;SDS011;12202;52.136;5.592;2023-04-24T05:53:03;16.13;;;8.40;;
23988;SDS011;12202;52.136;5.592;2023-04-24T05:55:31;16.08;;;8.63;;
23988;SDS011;12202;52.136;5.592;2023-04-24T05:57:57;12.98;;;7.55;;
23988;SDS011;12202;52.136;5.592;2023-04-24T06:00:24;16.67;;;8.48;;
23988;SDS011;12202;52.136;5.592;2023-04-24T06:02:50;13.77;;;7.47;;
23988;SDS011;12202;52.136;5.592;2023-04-24T06:05:17;15.43;;;7.70;;
23988;SDS011;12202;52.136;5.592;2023-04-24T06:07:44;18.30;;;8.93;;
23988;SDS011;12202;52.136;5.592;2023-04-24T06:10:10;16.98;;;8.48;;
23988;SDS011;12202;52.136;5.592;2023-04-24T06:12:36;14.20;;;8.00;;
23988;SDS011;12202;52.136;5.592;2023-04-24T06:15:03;13.55;;;8.50;;
23988;SDS011;12202;52.136;5.592;2023-04-24T06:17:29;13.75;;;7.50;;
23988;SDS011;12202;52.136;5.592;2023-04-24T06:19:59;14.38;;;7.18;;
23988;SDS011;12202;52.136;5.592;2023-04-24T06:22:25;15.88;;;8.02;;
23988;SDS011;12202;52.136;5.592;2023-04-24T06:24:51;21.98;;;9.35;;
23988;SDS011;12202;52.136;5.592;2023-04-24T06:27:17;18.23;;;8.48;;
23988;SDS011;12202;52.136;5.592;2023-04-24T06:29:43;13.75;;;8.00;;
23988;SDS011;12202;52.136;5.592;2023-04-24T06:32:09;12.38;;;6.78;;
23988;SDS011;12202;52.136;5.592;2023-04-24T06:34:35;18.67;;;8.23;;
23988;SDS011;12202;52.136;5.592;2023-04-24T06:37:01;15.98;;;8.07;;
23988;SDS011;12202;52.136;5.592;2023-04-24T06:39:30;16.42;;;7.25;;
23988;SDS011;12202;52.136;5.592;2023-04-24T06:41:56;13.00;;;7.07;;
23988;SDS011;12202;52.136;5.592;2023-04-24T06:44:22;11.73;;;6.35;;
23988;SDS011;12202;52.136;5.592;2023-04-24T06:46:48;10.80;;;6.25;;
23988;SDS011;12202;52.136;5.592;2023-04-24T06:49:14;9.75;;;5.20;;
23988;SDS011;12202;52.136;5.592;2023-04-24T06:51:40;9.63;;;4.88;;
23988;SDS011;12202;52.136;5.592;2023-04-24T06:54:07;8.73;;;4.38;;
23988;SDS011;12202;52.136;5.592;2023-04-24T06:56:33;6.10;;;3.53;;
23988;SDS011;12202;52.136;5.592;2023-04-24T06:58:59;7.53;;;4.40;;
23988;SDS011;12202;52.136;5.592;2023-04-24T07:01:25;10.52;;;5.60;;
23988;SDS011;12202;52.136;5.592;2023-04-24T07:03:51;16.25;;;8.23;;
23988;SDS011;12202;52.136;5.592;2023-04-24T07:06:17;17.50;;;9.90;;
23988;SDS011;12202;52.136;5.592;2023-04-24T07:08:46;32.22;;;14.00;;
23988;SDS011;12202;52.136;5.592;2023-04-24T07:11:12;33.42;;;15.18;;
23988;SDS011;12202;52.136;5.592;2023-04-24T07:13:38;33.40;;;15.43;;
23988;SDS011;12202;52.136;5.592;2023-04-24T07:16:06;32.38;;;15.88;;
23988;SDS011;12202;52.136;5.592;2023-04-24T07:18:33;28.30;;;15.70;;
23988;SDS011;12202;52.136;5.592;2023-04-24T07:20:59;35.28;;;16.23;;
23988;SDS011;12202;52.136;5.592;2023-04-24T07:23:25;28.73;;;16.17;;
23988;SDS011;12202;52.136;5.592;2023-04-24T07:25:51;30.92;;;15.63;;
23988;SDS011;12202;52.136;5.592;2023-04-24T07:28:17;32.65;;;17.55;;
23988;SDS011;12202;52.136;5.592;2023-04-24T07:30:43;30.70;;;16.95;;
23988;SDS011;12202;52.136;5.592;2023-04-24T07:33:10;37.10;;;18.02;;
23988;SDS011;12202;52.136;5.592;2023-04-24T07:35:38;40.67;;;21.60;;
23988;SDS011;12202;52.136;5.592;2023-04-24T07:38:04;48.17;;;24.00;;
23988;SDS011;12202;52.136;5.592;2023-04-24T07:40:30;57.83;;;28.92;;
23988;SDS011;12202;52.136;5.592;2023-04-24T07:42:56;56.60;;;28.10;;
23988;SDS011;12202;52.136;5.592;2023-04-24T07:45:23;63.63;;;28.83;;
23988;SDS011;12202;52.136;5.592;2023-04-24T07:47:50;62.13;;;30.73;;
23988;SDS011;12202;52.136;5.592;2023-04-24T07:50:17;60.13;;;30.00;;
23988;SDS011;12202;52.136;5.592;2023-04-24T07:52:43;61.35;;;28.45;;
23988;SDS011;12202;52.136;5.592;2023-04-24T07:55:09;56.30;;;26.13;;
23988;SDS011;12202;52.136;5.592;2023-04-24T07:57:36;56.05;;;25.95;;
23988;SDS011;12202;52.136;5.592;2023-04-24T08:00:03;56.88;;;25.98;;
23988;SDS011;12202;52.136;5.592;2023-04-24T08:02:29;53.40;;;24.70;;
23988;SDS011;12202;52.136;5.592;2023-04-24T08:04:55;45.70;;;22.05;;
23988;SDS011;12202;52.136;5.592;2023-04-24T08:07:21;42.03;;;21.88;;
23988;SDS011;12202;52.136;5.592;2023-04-24T08:09:47;39.42;;;21.35;;
23988;SDS011;12202;52.136;5.592;2023-04-24T08:12:13;45.85;;;23.67;;
23988;SDS011;12202;52.136;5.592;2023-04-24T08:14:40;58.85;;;22.85;;
23988;SDS011;12202;52.136;5.592;2023-04-24T08:17:06;42.42;;;23.80;;
23988;SDS011;12202;52.136;5.592;2023-04-24T08:19:32;35.10;;;18.67;;
23988;SDS011;12202;52.136;5.592;2023-04-24T08:21:58;38.40;;;19.83;;
23988;SDS011;12202;52.136;5.592;2023-04-24T08:24:24;34.90;;;20.10;;
23988;SDS011;12202;52.136;5.592;2023-04-24T08:26:50;37.58;;;18.83;;
23988;SDS011;12202;52.136;5.592;2023-04-24T08:29:17;52.97;;;26.00;;
23988;SDS011;12202;52.136;5.592;2023-04-24T08:31:43;30.15;;;14.65;;
23988;SDS011;12202;52.136;5.592;2023-04-24T08:34:09;32.63;;;13.00;;
23988;SDS011;12202;52.136;5.592;2023-04-24T08:36:35;38.90;;;14.98;;
23988;SDS011;12202;52.136;5.592;2023-04-24T08:39:01;30.92;;;13.23;;
23988;SDS011;12202;52.136;5.592;2023-04-24T08:41:28;30.77;;;12.35;;
23988;SDS011;12202;52.136;5.592;2023-04-24T08:43:54;36.25;;;13.30;;
23988;SDS011;12202;52.136;5.592;2023-04-24T08:46:22;31.73;;;12.07;;
23988;SDS011;12202;52.136;5.592;2023-04-24T08:48:52;33.78;;;13.30;;
23988;SDS011;12202;52.136;5.592;2023-04-24T08:51:18;21.98;;;9.10;;
23988;SDS011;12202;52.136;5.592;2023-04-24T08:53:45;29.73;;;10.38;;
23988;SDS011;12202;52.136;5.592;2023-04-24T08:56:12;17.90;;;8.70;;
23988;SDS011;12202;52.136;5.592;2023-04-24T08:58:38;23.42;;;8.85;;
23988;SDS011;12202;52.136;5.592;2023-04-24T09:01:04;27.88;;;10.77;;
23988;SDS011;12202;52.136;5.592;2023-04-24T09:03:31;29.17;;;9.93;;
23988;SDS011;12202;52.136;5.592;2023-04-24T09:05:57;42.45;;;13.77;;
23988;SDS011;12202;52.136;5.592;2023-04-24T09:08:24;33.53;;;13.05;;
23988;SDS011;12202;52.136;5.592;2023-04-24T09:10:50;26.55;;;14.23;;
23988;SDS011;12202;52.136;5.592;2023-04-24T09:13:16;38.00;;;13.93;;
23988;SDS011;12202;52.136;5.592;2023-04-24T09:15:42;40.10;;;12.90;;
23988;SDS011;12202;52.136;5.592;2023-04-24T09:18:08;41.67;;;13.30;;
23988;SDS011;12202;52.136;5.592;2023-04-24T09:20:34;35.60;;;10.23;;
23988;SDS011;12202;52.136;5.592;2023-04-24T09:23:01;23.65;;;7.18;;
23988;SDS011;12202;52.136;5.592;2023-04-24T09:25:31;27.42;;;7.70;;
23988;SDS011;12202;52.136;5.592;2023-04-24T09:28:00;27.40;;;6.68;;
23988;SDS011;12202;52.136;5.592;2023-04-24T09:30:26;27.58;;;6.90;;
23988;SDS011;12202;52.136;5.592;2023-04-24T09:33:12;24.27;;;6.32;;
23988;SDS011;12202;52.136;5.592;2023-04-24T09:35:40;26.20;;;5.78;;
23988;SDS011;12202;52.136;5.592;2023-04-24T09:38:06;19.88;;;5.55;;
23988;SDS011;12202;52.136;5.592;2023-04-24T09:40:34;25.65;;;7.40;;
23988;SDS011;12202;52.136;5.592;2023-04-24T09:43:00;27.33;;;5.90;;
23988;SDS011;12202;52.136;5.592;2023-04-24T09:45:28;29.13;;;6.50;;
23988;SDS011;12202;52.136;5.592;2023-04-24T09:47:55;15.65;;;5.63;;
23988;SDS011;12202;52.136;5.592;2023-04-24T09:50:21;28.08;;;6.65;;
23988;SDS011;12202;52.136;5.592;2023-04-24T09:52:57;22.80;;;5.22;;
23988;SDS011;12202;52.136;5.592;2023-04-24T09:55:23;18.80;;;5.43;;
23988;SDS011;12202;52.136;5.592;2023-04-24T09:57:56;22.85;;;5.57;;
23988;SDS011;12202;52.136;5.592;2023-04-24T10:00:29;21.58;;;5.22;;
23988;SDS011;12202;52.136;5.592;2023-04-24T10:03:00;20.35;;;5.30;;
23988;SDS011;12202;52.136;5.592;2023-04-24T10:05:30;24.80;;;5.90;;
23988;SDS011;12202;52.136;5.592;2023-04-24T10:08:03;16.02;;;5.03;;
23988;SDS011;12202;52.136;5.592;2023-04-24T10:10:34;17.70;;;5.35;;
23988;SDS011;12202;52.136;5.592;2023-04-24T10:13:01;27.48;;;8.55;;
23988;SDS011;12202;52.136;5.592;2023-04-24T10:15:28;20.70;;;5.38;;
23988;SDS011;12202;52.136;5.592;2023-04-24T10:17:54;21.17;;;5.60;;
23988;SDS011;12202;52.136;5.592;2023-04-24T10:20:21;13.90;;;5.20;;
23988;SDS011;12202;52.136;5.592;2023-04-24T10:22:47;27.10;;;6.45;;
23988;SDS011;12202;52.136;5.592;2023-04-24T10:25:16;25.05;;;6.65;;
23988;SDS011;12202;52.136;5.592;2023-04-24T10:27:42;22.52;;;5.47;;
23988;SDS011;12202;52.136;5.592;2023-04-24T10:30:09;15.63;;;5.55;;
23988;SDS011;12202;52.136;5.592;2023-04-24T10:32:36;18.55;;;4.97;;
23988;SDS011;12202;52.136;5.592;2023-04-24T10:35:02;23.27;;;5.47;;
23988;SDS011;12202;52.136;5.592;2023-04-24T10:37:28;21.23;;;4.80;;
23988;SDS011;12202;52.136;5.592;2023-04-24T10:40:01;21.67;;;5.03;;
23988;SDS011;12202;52.136;5.592;2023-04-24T10:42:27;12.70;;;4.60;;
23988;SDS011;12202;52.136;5.592;2023-04-24T10:44:53;21.17;;;5.03;;
23988;SDS011;12202;52.136;5.592;2023-04-24T10:47:20;15.45;;;4.50;;
23988;SDS011;12202;52.136;5.592;2023-04-24T10:49:47;16.23;;;4.20;;
23988;SDS011;12202;52.136;5.592;2023-04-24T10:52:18;14.02;;;3.20;;
23988;SDS011;12202;52.136;5.592;2023-04-24T10:54:45;11.65;;;3.13;;
23988;SDS011;12202;52.136;5.592;2023-04-24T10:59:47;8.20;;;2.38;;
23988;SDS011;12202;52.136;5.592;2023-04-24T11:02:14;6.97;;;2.13;;
23988;SDS011;12202;52.136;5.592;2023-04-24T11:04:44;7.25;;;2.35;;
23988;SDS011;12202;52.136;5.592;2023-04-24T11:07:11;8.30;;;2.63;;
23988;SDS011;12202;52.136;5.592;2023-04-24T11:09:37;6.00;;;2.17;;
23988;SDS011;12202;52.136;5.592;2023-04-24T11:12:09;10.52;;;3.00;;
23988;SDS011;12202;52.136;5.592;2023-04-24T11:15:09;6.40;;;3.10;;
23988;SDS011;12202;52.136;5.592;2023-04-24T11:17:28;7.75;;;2.50;;
23988;SDS011;12202;52.136;5.592;2023-04-24T11:20:00;9.82;;;2.30;;
23988;SDS011;12202;52.136;5.592;2023-04-24T11:22:26;10.35;;;2.15;;
23988;SDS011;12202;52.136;5.592;2023-04-24T11:24:54;8.27;;;2.63;;
23988;SDS011;12202;52.136;5.592;2023-04-24T11:27:21;7.18;;;2.47;;
23988;SDS011;12202;52.136;5.592;2023-04-24T11:34:49;8.27;;;3.17;;
23988;SDS011;12202;52.136;5.592;2023-04-24T11:37:15;8.70;;;2.58;;
23988;SDS011;12202;52.136;5.592;2023-04-24T11:39:41;16.10;;;2.92;;
23988;SDS011;12202;52.136;5.592;2023-04-24T11:42:08;13.68;;;3.03;;
23988;SDS011;12202;52.136;5.592;2023-04-24T11:44:35;9.35;;;2.72;;
23988;SDS011;12202;52.136;5.592;2023-04-24T11:47:06;17.35;;;3.25;;
23988;SDS011;12202;52.136;5.592;2023-04-24T11:49:33;10.75;;;2.60;;
23988;SDS011;12202;52.136;5.592;2023-04-24T11:51:59;7.82;;;2.33;;
23988;SDS011;12202;52.136;5.592;2023-04-24T11:54:26;8.70;;;1.98;;
23988;SDS011;12202;52.136;5.592;2023-04-24T11:56:52;7.32;;;2.45;;
23988;SDS011;12202;52.136;5.592;2023-04-24T11:59:18;12.80;;;2.53;;
23988;SDS011;12202;52.136;5.592;2023-04-24T12:01:47;5.45;;;2.33;;
23988;SDS011;12202;52.136;5.592;2023-04-24T12:04:14;8.77;;;2.72;;
23988;SDS011;12202;52.136;5.592;2023-04-24T12:06:40;8.02;;;2.13;;
23988;SDS011;12202;52.136;5.592;2023-04-24T12:09:24;10.57;;;2.42;;
23988;SDS011;12202;52.136;5.592;2023-04-24T12:11:53;9.68;;;2.40;;
23988;SDS011;12202;52.136;5.592;2023-04-24T12:14:21;6.75;;;1.98;;
23988;SDS011;12202;52.136;5.592;2023-04-24T12:16:48;8.35;;;1.45;;
23988;SDS011;12202;52.136;5.592;2023-04-24T12:19:18;4.53;;;1.48;;
23988;SDS011;12202;52.136;5.592;2023-04-24T12:21:45;4.85;;;1.50;;
23988;SDS011;12202;52.136;5.592;2023-04-24T12:24:23;3.70;;;1.50;;
23988;SDS011;12202;52.136;5.592;2023-04-24T12:26:49;7.93;;;2.00;;
23988;SDS011;12202;52.136;5.592;2023-04-24T12:29:22;9.23;;;1.70;;
23988;SDS011;12202;52.136;5.592;2023-04-24T12:31:48;5.82;;;1.73;;
23988;SDS011;12202;52.136;5.592;2023-04-24T12:34:18;7.93;;;1.40;;
23988;SDS011;12202;52.136;5.592;2023-04-24T12:36:45;14.73;;;2.55;;
23988;SDS011;12202;52.136;5.592;2023-04-24T12:39:17;7.07;;;1.80;;
23988;SDS011;12202;52.136;5.592;2023-04-24T12:41:56;13.15;;;2.30;;
23988;SDS011;12202;52.136;5.592;2023-04-24T12:44:32;8.25;;;2.35;;
23988;SDS011;12202;52.136;5.592;2023-04-24T12:46:59;14.07;;;2.15;;
23988;SDS011;12202;52.136;5.592;2023-04-24T12:49:25;13.27;;;3.15;;
23988;SDS011;12202;52.136;5.592;2023-04-24T12:51:51;14.02;;;3.10;;
23988;SDS011;12202;52.136;5.592;2023-04-24T12:54:17;11.27;;;2.40;;
23988;SDS011;12202;52.136;5.592;2023-04-24T12:56:43;14.63;;;3.47;;
23988;SDS011;12202;52.136;5.592;2023-04-24T12:59:09;11.32;;;2.80;;
23988;SDS011;12202;52.136;5.592;2023-04-24T13:01:35;12.60;;;3.22;;
23988;SDS011;12202;52.136;5.592;2023-04-24T13:04:01;11.93;;;2.80;;
23988;SDS011;12202;52.136;5.592;2023-04-24T13:06:27;19.40;;;3.10;;
23988;SDS011;12202;52.136;5.592;2023-04-24T13:08:53;17.42;;;2.92;;
23988;SDS011;12202;52.136;5.592;2023-04-24T13:11:20;18.23;;;3.28;;
23988;SDS011;12202;52.136;5.592;2023-04-24T13:13:46;13.85;;;3.42;;
23988;SDS011;12202;52.136;5.592;2023-04-24T13:16:13;29.02;;;4.50;;
23988;SDS011;12202;52.136;5.592;2023-04-24T13:18:39;16.88;;;5.70;;
23988;SDS011;12202;52.136;5.592;2023-04-24T13:21:04;24.25;;;5.43;;
23988;SDS011;12202;52.136;5.592;2023-04-24T13:23:30;22.27;;;5.05;;
23988;SDS011;12202;52.136;5.592;2023-04-24T13:25:56;18.58;;;5.55;;
23988;SDS011;12202;52.136;5.592;2023-04-24T13:28:24;26.92;;;5.30;;
23988;SDS011;12202;52.136;5.592;2023-04-24T13:30:50;19.00;;;4.70;;
23988;SDS011;12202;52.136;5.592;2023-04-24T13:33:16;20.80;;;5.00;;
23988;SDS011;12202;52.136;5.592;2023-04-24T13:35:42;14.88;;;4.93;;
23988;SDS011;12202;52.136;5.592;2023-04-24T13:38:08;25.60;;;5.20;;
23988;SDS011;12202;52.136;5.592;2023-04-24T13:40:34;15.55;;;4.95;;
23988;SDS011;12202;52.136;5.592;2023-04-24T13:43:00;17.85;;;5.03;;
23988;SDS011;12202;52.136;5.592;2023-04-24T13:45:26;31.75;;;5.57;;
23988;SDS011;12202;52.136;5.592;2023-04-24T13:47:52;28.08;;;4.97;;
23988;SDS011;12202;52.136;5.592;2023-04-24T13:50:19;21.13;;;4.72;;
23988;SDS011;12202;52.136;5.592;2023-04-24T13:52:45;22.73;;;5.22;;
23988;SDS011;12202;52.136;5.592;2023-04-24T13:55:11;19.50;;;4.32;;
23988;SDS011;12202;52.136;5.592;2023-04-24T13:57:37;18.60;;;4.15;;
23988;SDS011;12202;52.136;5.592;2023-04-24T14:00:03;26.05;;;4.45;;
23988;SDS011;12202;52.136;5.592;2023-04-24T14:02:31;20.17;;;4.53;;
23988;SDS011;12202;52.136;5.592;2023-04-24T14:04:57;18.75;;;4.50;;
23988;SDS011;12202;52.136;5.592;2023-04-24T14:07:23;23.17;;;5.05;;
23988;SDS011;12202;52.136;5.592;2023-04-24T14:09:49;21.23;;;5.88;;
23988;SDS011;12202;52.136;5.592;2023-04-24T14:12:16;22.77;;;5.60;;
23988;SDS011;12202;52.136;5.592;2023-04-24T14:14:44;20.92;;;6.07;;
23988;SDS011;12202;52.136;5.592;2023-04-24T14:17:10;20.20;;;4.88;;
23988;SDS011;12202;52.136;5.592;2023-04-24T14:19:36;21.00;;;5.80;;
23988;SDS011;12202;52.136;5.592;2023-04-24T14:22:02;20.55;;;5.07;;
23988;SDS011;12202;52.136;5.592;2023-04-24T14:24:28;23.23;;;4.88;;
23988;SDS011;12202;52.136;5.592;2023-04-24T14:26:54;18.83;;;5.22;;
23988;SDS011;12202;52.136;5.592;2023-04-24T14:29:22;22.65;;;5.55;;
23988;SDS011;12202;52.136;5.592;2023-04-24T14:31:49;18.63;;;5.65;;
23988;SDS011;12202;52.136;5.592;2023-04-24T14:34:15;26.70;;;5.53;;
23988;SDS011;12202;52.136;5.592;2023-04-24T14:36:41;27.77;;;5.00;;
23988;SDS011;12202;52.136;5.592;2023-04-24T14:39:07;19.15;;;5.22;;